createdAt,value
2022-09-21T00:01:34.857Z,80.83
2022-09-21T00:04:04.070Z,80.91
2022-09-21T00:06:33.833Z,80.73
2022-09-21T00:09:05.465Z,80.67
2022-09-21T00:11:34.443Z,80.55
2022-09-21T00:14:07.399Z,80.57
2022-09-21T00:16:35.943Z,80.64
2022-09-21T00:19:04.798Z,80.63
2022-09-21T00:21:34.661Z,80.64
2022-09-21T00:24:03.189Z,80.64
2022-09-21T00:26:32.297Z,80.35
2022-09-21T00:29:02.381Z,80.19
2022-09-21T00:31:32.131Z,79.77
2022-09-21T00:34:01.175Z,79.43
2022-09-21T00:36:29.818Z,79.19
2022-09-21T00:38:59.765Z,78.87
2022-09-21T00:41:29.285Z,78.88
2022-09-21T00:44:16.074Z,78.60
2022-09-21T00:46:45.401Z,79.05
2022-09-21T00:49:14.503Z,79.34
2022-09-21T00:51:43.091Z,79.65
2022-09-21T00:54:20.600Z,79.68
2022-09-21T00:56:49.020Z,79.52
2022-09-21T00:59:21.512Z,79.68
2022-09-21T01:01:51.639Z,79.63
2022-09-21T01:04:20.541Z,79.49
2022-09-21T01:06:50.578Z,79.38
2022-09-21T01:09:19.396Z,79.51
2022-09-21T01:12:03.069Z,79.25
2022-09-21T01:14:31.226Z,79.19
2022-09-21T01:17:08.954Z,79.04
2022-09-21T01:19:37.173Z,78.78
2022-09-21T01:22:11.494Z,78.68
2022-09-21T01:24:48.842Z,78.49
2022-09-21T01:27:17.018Z,78.18
2022-09-21T01:29:50.622Z,77.89
2022-09-21T01:32:23.123Z,77.68
2022-09-21T01:34:58.744Z,77.77
2022-09-21T01:37:39.033Z,78.02
2022-09-21T01:40:11.659Z,77.70
2022-09-21T01:42:41.147Z,77.50
2022-09-21T01:45:11.385Z,77.47
2022-09-21T01:47:41.281Z,77.20
2022-09-21T01:50:11.897Z,77.44
2022-09-21T01:52:47.439Z,77.15
2022-09-21T01:55:19.243Z,77.14
2022-09-21T01:58:11.441Z,77.21
2022-09-21T02:00:41.286Z,77.10
2022-09-21T02:03:35.924Z,77.26
2022-09-21T02:06:05.011Z,77.39
2022-09-21T02:08:33.676Z,77.26
2022-09-21T02:11:03.364Z,77.25
2022-09-21T02:13:33.729Z,77.27
2022-09-21T02:16:08.025Z,77.47
2022-09-21T02:18:43.969Z,77.46
2022-09-21T02:21:32.069Z,77.46
2022-09-21T02:24:22.181Z,77.45
2022-09-21T02:26:53.811Z,77.57
2022-09-21T02:29:25.125Z,77.81
2022-09-21T02:32:05.416Z,78.04
2022-09-21T02:34:33.633Z,78.28
2022-09-21T02:37:04.943Z,78.38
2022-09-21T02:39:44.750Z,78.45
2022-09-21T02:42:33.967Z,78.54
2022-09-21T02:45:07.861Z,78.39
2022-09-21T02:47:36.023Z,78.62
2022-09-21T02:50:13.113Z,78.84
2022-09-21T02:52:43.197Z,78.77
2022-09-21T02:55:13.250Z,78.94
2022-09-21T02:57:41.842Z,78.94
2022-09-21T03:00:23.027Z,78.96
2022-09-21T03:02:51.285Z,79.03
2022-09-21T03:05:19.581Z,79.07
2022-09-21T03:07:48.904Z,79.04
2022-09-21T03:10:17.694Z,79.03
2022-09-21T03:12:46.346Z,79.17
2022-09-21T03:15:16.815Z,79.03
2022-09-21T03:17:45.289Z,79.05
2022-09-21T03:20:13.531Z,79.03
2022-09-21T03:22:41.737Z,79.05
2022-09-21T03:25:12.529Z,79.17
2022-09-21T03:27:41.670Z,79.26
2022-09-21T03:30:10.411Z,79.16
2022-09-21T03:32:38.637Z,79.04
2022-09-21T03:35:06.983Z,79.18
2022-09-21T03:37:38.071Z,79.41
2022-09-21T03:40:09.928Z,79.26
2022-09-21T03:42:38.946Z,79.18
2022-09-21T03:45:08.166Z,79.14
2022-09-21T03:47:36.789Z,79.01
2022-09-21T03:50:09.825Z,78.89
2022-09-21T03:52:39.093Z,78.90
2022-09-21T03:55:08.309Z,78.93
2022-09-21T03:57:37.197Z,78.80
2022-09-21T04:00:07.177Z,78.93
2022-09-21T04:02:35.909Z,79.02
2022-09-21T04:05:04.386Z,78.92
2022-09-21T04:07:36.018Z,78.97
2022-09-21T04:10:06.193Z,78.92
2022-09-21T04:12:35.021Z,79.13
2022-09-21T04:15:04.420Z,79.18
2022-09-21T04:17:32.648Z,79.33
2022-09-21T04:20:01.404Z,79.43
2022-09-21T04:22:29.645Z,79.47
2022-09-21T04:24:57.914Z,79.63
2022-09-21T04:27:26.103Z,79.66
2022-09-21T04:29:54.327Z,79.62
2022-09-21T04:32:22.538Z,79.65
2022-09-21T04:34:51.076Z,79.81
2022-09-21T04:37:19.308Z,79.99
2022-09-21T04:39:47.846Z,80.09
2022-09-21T04:42:16.049Z,80.29
2022-09-21T04:44:44.303Z,80.62
2022-09-21T04:47:12.673Z,80.34
2022-09-21T04:49:40.877Z,80.39
2022-09-21T04:52:09.133Z,80.30
2022-09-21T04:54:37.415Z,80.26
2022-09-21T04:57:05.631Z,80.39
2022-09-21T04:59:33.919Z,80.32
2022-09-21T05:02:02.190Z,80.33
2022-09-21T05:04:30.422Z,80.50
2022-09-21T05:06:59.693Z,80.87
2022-09-21T05:09:46.608Z,80.89
2022-09-21T05:12:14.832Z,80.88
2022-09-21T05:14:45.135Z,81.16
2022-09-21T05:17:13.562Z,81.06
2022-09-21T05:19:41.750Z,80.91
2022-09-21T05:22:09.958Z,81.00
2022-09-21T05:24:38.174Z,80.94
2022-09-21T05:27:06.716Z,80.84
2022-09-21T05:29:35.370Z,80.88
2022-09-21T05:32:08.781Z,80.62
2022-09-21T05:34:42.278Z,80.59
2022-09-21T05:37:15.379Z,80.41
2022-09-21T05:39:43.984Z,80.44
2022-09-21T05:42:12.498Z,80.28
2022-09-21T05:44:40.854Z,80.22
2022-09-21T05:47:12.175Z,80.02
2022-09-21T05:49:43.505Z,79.75
2022-09-21T05:52:20.990Z,79.04
2022-09-21T05:54:49.463Z,78.73
2022-09-21T05:57:30.918Z,78.15
2022-09-21T06:00:07.686Z,77.22
2022-09-21T06:02:59.218Z,76.60
2022-09-21T06:05:27.478Z,75.44
2022-09-21T06:07:56.171Z,74.50
2022-09-21T06:10:25.690Z,73.83
2022-09-21T06:12:54.361Z,73.81
2022-09-21T06:15:22.658Z,73.42
2022-09-21T06:17:50.832Z,73.84
2022-09-21T06:20:19.062Z,73.43
2022-09-21T06:22:47.279Z,73.58
2022-09-21T06:25:15.517Z,72.97
2022-09-21T06:27:43.775Z,73.74
2022-09-21T06:30:12.380Z,72.81
2022-09-21T06:32:40.586Z,73.10
2022-09-21T06:35:09.210Z,73.01
2022-09-21T06:37:40.380Z,71.54
2022-09-21T06:40:09.157Z,68.80
2022-09-21T06:42:37.424Z,69.26
2022-09-21T06:45:06.168Z,67.36
2022-09-21T06:47:34.363Z,66.01
2022-09-21T06:50:03.305Z,64.40
2022-09-21T06:52:31.772Z,65.03
2022-09-21T06:54:59.992Z,63.48
2022-09-21T06:57:28.275Z,62.72
2022-09-21T06:59:56.523Z,60.97
2022-09-21T07:02:24.770Z,60.38
2022-09-21T07:04:52.984Z,60.42
2022-09-21T07:07:21.278Z,59.53
2022-09-21T07:10:05.867Z,59.57
2022-09-21T07:12:35.548Z,58.64
2022-09-21T07:15:04.999Z,60.01
2022-09-21T07:17:37.598Z,59.97
2022-09-21T07:20:07.041Z,58.75
2022-09-21T07:22:35.774Z,58.04
2022-09-21T07:25:05.000Z,57.07
2022-09-21T07:27:34.172Z,56.49
2022-09-21T07:30:03.336Z,54.86
2022-09-21T07:32:31.901Z,55.08
2022-09-21T07:35:00.296Z,54.91
2022-09-21T07:37:28.603Z,53.35
2022-09-21T07:39:56.879Z,53.63
2022-09-21T07:42:26.603Z,53.72
2022-09-21T07:45:03.123Z,52.97
2022-09-21T07:47:32.710Z,53.71
2022-09-21T07:50:03.979Z,53.82
2022-09-21T07:52:33.874Z,54.70
2022-09-21T07:55:02.125Z,55.03
2022-09-21T07:57:49.003Z,53.35
2022-09-21T08:00:17.310Z,52.86
2022-09-21T08:02:47.775Z,52.49
2022-09-21T08:05:16.502Z,52.37
2022-09-21T08:07:44.734Z,51.54
2022-09-21T08:10:13.311Z,50.65
2022-09-21T08:12:42.926Z,50.15
2022-09-21T08:15:30.687Z,48.03
2022-09-21T08:18:01.064Z,48.76
2022-09-21T08:20:29.573Z,48.30
2022-09-21T08:22:57.812Z,48.56
2022-09-21T08:25:26.094Z,48.99
2022-09-21T08:27:58.333Z,49.81
2022-09-21T08:30:28.469Z,49.01
2022-09-21T08:32:57.008Z,48.98
2022-09-21T08:35:25.661Z,49.47
2022-09-21T08:37:54.300Z,49.65
2022-09-21T08:40:22.834Z,50.20
2022-09-21T08:42:51.234Z,51.30
2022-09-21T08:45:21.241Z,51.42
2022-09-21T08:47:56.362Z,51.00
2022-09-21T08:50:42.878Z,50.64
2022-09-21T08:53:13.201Z,49.76
2022-09-21T08:55:41.499Z,50.32
2022-09-21T08:58:22.799Z,51.30
2022-09-21T09:01:06.953Z,50.11
2022-09-21T09:03:36.736Z,50.91
2022-09-21T09:06:27.375Z,50.99
2022-09-21T09:08:56.019Z,51.73
2022-09-21T09:11:30.376Z,52.62
2022-09-21T09:14:10.477Z,52.92
2022-09-21T09:16:38.734Z,51.89
2022-09-21T09:19:26.219Z,50.30
2022-09-21T09:21:56.294Z,50.63
2022-09-21T09:24:30.639Z,49.02
2022-09-21T09:27:06.146Z,48.73
2022-09-21T09:29:40.632Z,49.52
2022-09-21T09:32:14.602Z,48.02
2022-09-21T09:34:46.181Z,47.59
2022-09-21T09:37:16.276Z,49.60
2022-09-21T09:39:49.097Z,49.96
2022-09-21T09:42:36.188Z,50.22
2022-09-21T09:45:04.444Z,50.79
2022-09-21T09:47:52.720Z,50.28
2022-09-21T09:50:38.216Z,48.95
2022-09-21T09:53:11.146Z,47.53
2022-09-21T09:55:41.028Z,47.43
2022-09-21T09:58:32.596Z,46.51
2022-09-21T10:01:00.864Z,46.66
2022-09-21T10:03:29.232Z,47.53
2022-09-21T10:05:57.470Z,47.18
2022-09-21T10:08:30.527Z,46.26
2022-09-21T10:10:58.887Z,44.51
2022-09-21T10:13:27.078Z,44.42
2022-09-21T10:15:57.843Z,45.63
2022-09-21T10:18:29.209Z,45.59
2022-09-21T10:21:01.787Z,45.23
2022-09-21T10:23:31.024Z,44.12
2022-09-21T10:25:59.257Z,43.52
2022-09-21T10:28:28.622Z,42.74
2022-09-21T10:31:17.211Z,42.97
2022-09-21T10:33:50.799Z,42.36
2022-09-21T10:36:25.726Z,39.84
2022-09-21T10:38:54.005Z,39.56
2022-09-21T10:41:22.634Z,39.58
2022-09-21T10:43:51.306Z,40.62
2022-09-21T10:46:32.659Z,40.28
2022-09-21T10:49:02.535Z,40.57
2022-09-21T10:51:31.366Z,41.37
2022-09-21T10:54:00.150Z,41.03
2022-09-21T10:56:28.389Z,40.47
2022-09-21T10:59:15.487Z,41.10
2022-09-21T11:01:45.861Z,41.56
2022-09-21T11:04:20.417Z,39.84
2022-09-21T11:06:51.994Z,39.78
2022-09-21T11:09:28.498Z,41.03
2022-09-21T11:12:04.715Z,41.26
2022-09-21T11:14:32.953Z,40.40
2022-09-21T11:17:24.468Z,39.50
2022-09-21T11:19:55.820Z,39.26
2022-09-21T11:22:24.054Z,40.35
2022-09-21T11:24:59.494Z,41.05
2022-09-21T11:27:32.474Z,41.59
2022-09-21T11:30:03.881Z,42.01
2022-09-21T11:32:50.986Z,41.52
2022-09-21T11:35:36.190Z,41.47
2022-09-21T11:38:04.802Z,42.04
2022-09-21T11:40:42.211Z,42.57
2022-09-21T11:43:29.907Z,43.44
2022-09-21T11:46:10.443Z,45.02
2022-09-21T11:48:41.698Z,45.46
2022-09-21T11:51:09.923Z,44.13
2022-09-21T11:54:04.399Z,43.11
2022-09-21T11:56:32.670Z,42.92
2022-09-21T11:59:00.882Z,43.32
2022-09-21T12:01:35.311Z,44.25
2022-09-21T12:04:21.270Z,44.98
2022-09-21T12:06:55.556Z,45.05
2022-09-21T12:09:44.148Z,44.68
2022-09-21T12:12:18.582Z,45.19
2022-09-21T12:15:02.471Z,45.32
2022-09-21T12:17:34.672Z,46.26
2022-09-21T12:20:17.148Z,47.61
2022-09-21T12:22:46.926Z,48.74
2022-09-21T12:25:27.649Z,48.73
2022-09-21T12:28:02.663Z,48.78
2022-09-21T12:30:32.568Z,48.99
2022-09-21T12:33:07.408Z,49.07
2022-09-21T12:35:35.586Z,49.04
2022-09-21T12:38:12.694Z,49.04
2022-09-21T12:40:51.937Z,47.00
2022-09-21T12:43:36.255Z,46.57
2022-09-21T12:46:13.779Z,45.13
2022-09-21T12:48:46.011Z,43.42
2022-09-21T12:51:16.873Z,43.41
2022-09-21T12:53:57.626Z,43.65
2022-09-21T12:56:44.070Z,43.43
2022-09-21T12:59:32.574Z,42.99
2022-09-21T13:02:00.884Z,41.39
2022-09-21T13:04:50.546Z,41.82
2022-09-21T13:07:37.561Z,42.82
2022-09-21T13:10:15.979Z,43.71
2022-09-21T13:12:46.451Z,44.48
2022-09-21T13:15:22.162Z,44.84
2022-09-21T13:18:01.562Z,45.11
2022-09-21T13:20:38.509Z,45.66
2022-09-21T13:23:14.207Z,45.47
2022-09-21T13:25:47.110Z,45.78
2022-09-21T13:28:15.710Z,45.19
2022-09-21T13:31:06.647Z,44.84
2022-09-21T13:34:02.174Z,44.80
2022-09-21T13:36:32.234Z,44.35
2022-09-21T13:39:12.901Z,44.18
2022-09-21T13:42:01.703Z,44.88
2022-09-21T13:44:38.361Z,45.33
2022-09-21T13:47:08.697Z,45.61
2022-09-21T13:49:42.505Z,44.42
2022-09-21T13:52:13.852Z,44.41
2022-09-21T13:54:45.083Z,44.64
2022-09-21T13:57:19.410Z,45.04
2022-09-21T13:59:49.629Z,45.21
2022-09-21T14:02:38.217Z,45.59
2022-09-21T14:05:20.264Z,46.34
2022-09-21T14:07:54.925Z,47.04
2022-09-21T14:10:23.819Z,47.86
2022-09-21T14:12:52.296Z,48.17
2022-09-21T14:15:20.443Z,48.69
2022-09-21T14:18:08.094Z,49.21
2022-09-21T14:20:39.644Z,49.22
2022-09-21T14:23:13.359Z,49.47
2022-09-21T14:25:49.556Z,49.59
2022-09-21T14:28:19.951Z,49.80
2022-09-21T14:31:00.620Z,49.92
2022-09-21T14:33:29.217Z,49.76
2022-09-21T14:35:58.302Z,49.45
2022-09-21T14:38:28.964Z,49.47
2022-09-21T14:41:02.001Z,49.74
2022-09-21T14:43:34.098Z,49.11
2022-09-21T14:46:12.081Z,49.19
2022-09-21T14:48:59.168Z,49.74
2022-09-21T14:51:27.414Z,49.80
2022-09-21T14:53:58.815Z,50.23
2022-09-21T14:56:30.517Z,50.61
2022-09-21T14:59:28.058Z,51.28
2022-09-21T15:01:59.890Z,51.66
2022-09-21T15:04:39.189Z,52.17
2022-09-21T15:07:42.269Z,52.77
2022-09-21T15:10:32.312Z,53.36
2022-09-21T15:13:20.558Z,54.17
2022-09-21T15:16:00.415Z,54.90
2022-09-21T15:18:30.965Z,55.58
2022-09-21T15:21:02.054Z,55.81
2022-09-21T15:23:34.837Z,57.16
2022-09-21T15:26:04.485Z,57.78
2022-09-21T15:29:04.926Z,59.38
2022-09-21T15:31:48.235Z,59.99
2022-09-21T15:34:16.743Z,60.16
2022-09-21T15:36:45.382Z,61.13
2022-09-21T15:39:24.599Z,60.99
2022-09-21T15:42:20.211Z,60.89
2022-09-21T15:44:50.895Z,60.99
2022-09-21T15:47:23.672Z,60.93
2022-09-21T15:49:54.297Z,61.35
2022-09-21T15:52:22.728Z,61.91
2022-09-21T15:55:03.068Z,62.28
2022-09-21T15:57:40.768Z,62.74
2022-09-21T16:00:21.641Z,63.62
2022-09-21T16:03:12.648Z,64.18
2022-09-21T16:05:46.369Z,64.50
2022-09-21T16:08:22.770Z,64.65
2022-09-21T16:10:51.080Z,64.84
2022-09-21T16:13:39.120Z,65.55
2022-09-21T16:16:12.579Z,65.30
2022-09-21T16:18:43.405Z,65.90
2022-09-21T16:21:22.207Z,66.36
2022-09-21T16:23:52.098Z,66.39
2022-09-21T16:26:22.480Z,66.73
2022-09-21T16:28:56.371Z,67.76
2022-09-21T16:31:29.002Z,68.26
2022-09-21T16:33:57.422Z,68.05
2022-09-21T16:36:25.879Z,68.72
2022-09-21T16:38:54.248Z,68.97
2022-09-21T16:41:25.009Z,69.19
2022-09-21T16:43:54.422Z,69.35
2022-09-21T16:46:23.487Z,69.81
2022-09-21T16:48:51.673Z,70.08
2022-09-21T16:51:24.956Z,70.13
2022-09-21T16:53:53.754Z,70.47
2022-09-21T16:56:22.124Z,71.32
2022-09-21T16:58:50.386Z,71.26
2022-09-21T17:01:21.035Z,70.86
2022-09-21T17:03:49.364Z,71.27
2022-09-21T17:06:18.754Z,72.14
2022-09-21T17:08:48.469Z,71.89
2022-09-21T17:11:20.195Z,72.55
2022-09-21T17:13:51.636Z,72.56
2022-09-21T17:16:20.529Z,72.83
2022-09-21T17:18:49.227Z,73.06
2022-09-21T17:21:17.537Z,72.84
2022-09-21T17:23:46.416Z,72.74
2022-09-21T17:26:21.438Z,73.19
2022-09-21T17:28:50.442Z,73.40
2022-09-21T17:31:18.669Z,73.55
2022-09-21T17:33:48.012Z,73.40
2022-09-21T17:36:17.007Z,73.24
2022-09-21T17:38:45.912Z,73.23
2022-09-21T17:41:23.736Z,73.32
2022-09-21T17:43:56.930Z,73.47
2022-09-21T17:46:36.089Z,73.50
2022-09-21T17:49:04.505Z,73.65
2022-09-21T17:51:51.534Z,73.71
2022-09-21T17:54:19.830Z,73.66
2022-09-21T17:56:52.180Z,73.91
2022-09-21T17:59:38.685Z,74.00
2022-09-21T18:02:22.179Z,73.79
2022-09-21T18:04:58.445Z,74.16
2022-09-21T18:07:26.881Z,73.96
2022-09-21T18:09:55.244Z,74.12
2022-09-21T18:12:23.605Z,74.10
2022-09-21T18:14:58.759Z,74.15
2022-09-21T18:17:26.957Z,74.16
2022-09-21T18:20:18.651Z,74.37
2022-09-21T18:23:05.821Z,74.54
2022-09-21T18:25:47.995Z,74.59
2022-09-21T18:28:36.822Z,74.59
2022-09-21T18:31:18.912Z,74.90
2022-09-21T18:33:56.929Z,75.07
2022-09-21T18:36:37.176Z,74.86
2022-09-21T18:39:44.175Z,75.08
2022-09-21T18:42:15.243Z,75.38
2022-09-21T18:44:49.667Z,75.41
2022-09-21T18:47:22.719Z,75.48
2022-09-21T18:49:59.974Z,75.46
2022-09-21T18:52:31.389Z,75.48
2022-09-21T18:54:59.693Z,75.51
2022-09-21T18:57:32.517Z,75.35
2022-09-21T19:00:00.944Z,75.62
2022-09-21T19:02:29.654Z,75.75
2022-09-21T19:04:58.518Z,75.64
2022-09-21T19:07:56.231Z,75.50
2022-09-21T19:10:38.505Z,75.89
2022-09-21T19:13:26.970Z,75.68
2022-09-21T19:16:01.926Z,75.60
2022-09-21T19:19:09.002Z,75.49
2022-09-21T19:21:57.006Z,75.50
2022-09-21T19:24:31.157Z,75.65
2022-09-21T19:27:18.121Z,75.78
2022-09-21T19:29:53.320Z,75.59
2022-09-21T19:32:33.810Z,75.34
2022-09-21T19:35:12.846Z,75.67
2022-09-21T19:37:41.105Z,75.75
2022-09-21T19:40:10.909Z,75.77
2022-09-21T19:42:45.357Z,75.95
2022-09-21T19:45:27.573Z,76.37
2022-09-21T19:48:01.100Z,76.56
2022-09-21T19:50:47.069Z,76.72
2022-09-21T19:53:34.246Z,76.73
2022-09-21T19:56:21.150Z,77.18
2022-09-21T19:59:08.128Z,77.17
2022-09-21T20:01:38.376Z,77.00
2022-09-21T20:04:07.012Z,77.15
2022-09-21T20:06:39.077Z,76.98
2022-09-21T20:09:10.262Z,76.80
2022-09-21T20:11:56.012Z,76.97
2022-09-21T20:14:40.058Z,76.74
2022-09-21T20:17:12.599Z,76.89
2022-09-21T20:20:08.570Z,76.91
2022-09-21T20:22:38.152Z,77.02
2022-09-21T20:25:09.692Z,77.15
2022-09-21T20:27:44.056Z,77.14
2022-09-21T20:30:13.676Z,77.17
2022-09-21T20:32:44.706Z,77.15
2022-09-21T20:35:12.887Z,77.09
2022-09-21T20:37:41.659Z,77.26
2022-09-21T20:40:11.841Z,77.12
2022-09-21T20:42:40.890Z,77.31
2022-09-21T20:45:09.995Z,77.45
2022-09-21T20:47:38.535Z,77.63
2022-09-21T20:50:11.767Z,77.55
2022-09-21T20:52:41.685Z,77.69
2022-09-21T20:55:11.279Z,77.51
2022-09-21T20:57:42.833Z,77.42
2022-09-21T21:00:13.167Z,77.38
2022-09-21T21:02:41.829Z,77.63
2022-09-21T21:05:11.473Z,77.60
2022-09-21T21:07:43.631Z,77.60
2022-09-21T21:10:15.876Z,77.98
2022-09-21T21:12:44.152Z,77.91
2022-09-21T21:15:12.774Z,77.97
2022-09-21T21:17:41.416Z,78.33
2022-09-21T21:20:10.296Z,78.18
2022-09-21T21:22:39.262Z,78.55
2022-09-21T21:25:08.204Z,78.78
2022-09-21T21:27:36.422Z,78.70
2022-09-21T21:30:05.044Z,78.95
2022-09-21T21:32:33.267Z,79.29
2022-09-21T21:35:01.473Z,79.67
2022-09-21T21:37:29.864Z,79.69
2022-09-21T21:39:58.744Z,80.09
2022-09-21T21:42:29.269Z,80.09
2022-09-21T21:44:57.863Z,80.50
2022-09-21T21:47:41.616Z,80.55
2022-09-21T21:50:10.985Z,80.56
2022-09-21T21:52:39.459Z,80.58
2022-09-21T21:55:08.143Z,80.54
2022-09-21T21:57:36.344Z,80.57
2022-09-21T22:00:06.347Z,80.64
2022-09-21T22:02:35.025Z,80.52
2022-09-21T22:05:04.098Z,80.49
2022-09-21T22:07:32.321Z,80.45
2022-09-21T22:10:00.524Z,80.35
2022-09-21T22:12:28.739Z,80.10
2022-09-21T22:14:56.940Z,80.27
2022-09-21T22:17:25.139Z,80.25
2022-09-21T22:19:54.280Z,80.05
2022-09-21T22:22:22.564Z,79.97
2022-09-21T22:24:50.772Z,80.11
2022-09-21T22:27:19.049Z,80.19
2022-09-21T22:29:47.248Z,80.05
2022-09-21T22:32:15.426Z,80.21
2022-09-21T22:34:43.590Z,80.15
2022-09-21T22:37:12.022Z,80.36
2022-09-21T22:39:40.252Z,80.39
2022-09-21T22:42:11.499Z,80.29
2022-09-21T22:44:39.713Z,80.26
2022-09-21T22:47:07.978Z,80.32
2022-09-21T22:49:36.895Z,80.31
2022-09-21T22:52:05.132Z,80.20
2022-09-21T22:54:33.385Z,80.29
2022-09-21T22:57:01.652Z,80.14
2022-09-21T22:59:29.876Z,80.23
2022-09-21T23:01:58.094Z,80.21
2022-09-21T23:04:26.744Z,80.17
2022-09-21T23:06:55.009Z,80.40
2022-09-21T23:09:23.212Z,80.39
2022-09-21T23:11:54.373Z,80.49
2022-09-21T23:14:23.588Z,80.56
2022-09-21T23:16:51.921Z,80.60
2022-09-21T23:19:20.227Z,80.47
2022-09-21T23:21:50.000Z,80.39
2022-09-21T23:24:19.515Z,80.57
2022-09-21T23:26:50.680Z,80.61
2022-09-21T23:29:18.977Z,80.40
2022-09-21T23:31:47.436Z,80.64
2022-09-21T23:34:16.150Z,80.55
2022-09-21T23:36:45.059Z,80.40
2022-09-21T23:39:14.418Z,80.39
2022-09-21T23:41:43.088Z,80.41
2022-09-21T23:44:11.414Z,80.49
2022-09-21T23:46:40.726Z,80.38
2022-09-21T23:49:09.562Z,80.38
2022-09-21T23:51:38.317Z,80.24
2022-09-21T23:54:06.681Z,80.32
2022-09-21T23:56:35.112Z,80.21
2022-09-21T23:59:03.400Z,80.06
